This is the latest recevied weather packets stored in our database for station/object JO1YDG-13. If no packets are shown the sender has not sent any weather packets the latest 10 day(s).
| Time | Temp. | Humidity | Pressure | Rain* | Wind** | Luminosity | Snow |
|---|---|---|---|---|---|---|---|
| 1777929731 | 12.78° C | 43% | 991 hPa | 0 mm | - | - | - |
| 1777929431 | 12.78° C | 44% | 991 hPa | 0 mm | - | - | - |
| 1777929131 | 12.22° C | 48% | 990.7 hPa | 0 mm | - | - | - |
| 1777928831 | 12.22° C | 49% | 990.7 hPa | 0 mm | - | - | - |
| 1777928530 | 11.67° C | 49% | 990.4 hPa | 0 mm | - | - | - |
| 1777928230 | 11.67° C | 49% | 990.4 hPa | 0 mm | - | - | - |
| 1777927930 | 11.67° C | 48% | 990.4 hPa | 0 mm | - | - | - |
| 1777927630 | 11.67° C | 45% | 990.1 hPa | 0 mm | - | - | - |
| 1777927330 | 11.67° C | 48% | 990.1 hPa | 0 mm | - | - | - |
| 1777927029 | 11.11° C | 48% | 990 hPa | 0 mm | - | - | - |
| 1777926731 | 11.11° C | 47% | 990 hPa | 0 mm | - | - | - |
| 1777926431 | 11.11° C | 47% | 989.9 hPa | 0 mm | - | - | - |
| 1777926131 | 11.11° C | 48% | 989.8 hPa | 0 mm | - | - | - |
| 1777925830 | 11.11° C | 48% | 989.8 hPa | 0 mm | - | - | - |
| 1777925530 | 11.11° C | 47% | 989.4 hPa | 0 mm | - | - | - |
| 1777925230 | 11.11° C | 46% | 989.4 hPa | 0 mm | - | - | - |
| 1777924930 | 11.11° C | 43% | 989 hPa | 0 mm | - | - | - |
| 1777924629 | 11.11° C | 42% | 989 hPa | 0 mm | - | - | - |
| 1777924331 | 11.11° C | 42% | 989 hPa | 0 mm | - | - | - |
| 1777924031 | 10° C | 49% | 988.9 hPa | 0 mm | - | - | - |
| 1777923730 | 10.56° C | 48% | 988.9 hPa | 0 mm | - | - | - |
| 1777923429 | 10.56° C | 48% | 988.5 hPa | 0 mm | - | - | - |
| 1777923129 | 10.56° C | 49% | 988.5 hPa | 0 mm | - | - | - |
| 1777922831 | 10.56° C | 49% | 988.4 hPa | 0 mm | - | - | - |
| 1777922531 | 10.56° C | 48% | 988.4 hPa | 0 mm | - | - | - |
* Rain latest hour (hover to see other rain measurements)
** Current wind speed in m/s (hover to see current wind gust speed)